Etusivu
METAR-TAF:

METAR-TAF

Lentoasemat :

Fairfield Municipal Airport

Fairfield, Iowa, Yhdysvallat

Leveyspiiri: 41-03N, Pituuspiiri: 091-59W, korkeus merenpinnasta: 244 m

Tämänhetkinen sää

Tämä raportti tehtiin 21 minuuttia sitten, kello 02.55 UTC
Tuuli 12 kn luoteesta
Lämpötila 12°C
Kosteus 100%
Ilmanpaine 1010 hPa
Näkyvyys: 16.1 km
Muutamia pilviä 7500 ft:n korkeudessa
Hajonneita pilviä 9000 ft:n korkeudessa

METAR: KFFL 230255Z AUTO 32012KT 10SM FEW075 BKN090 12/12 A2982 RMK A01

Aika: 22:16 (03:16 UTC)


TAF: puuttuu

Säähavainnot ja -ennusteet yli 4000 lentoasemalta (METAR- ja TAF-raportit).

Käytössä olevat sääasemat on merkitty karttaan keltaisilla ja punaisilla pisteillä.

Aseta hiiri pisteen päälle nähdäksesi sääaseman nimen.

Klikkaa sitten nähdäksesi säähavainnot ja -ennusteet.

Kartan vaihtaminen: klikkaa mustalla rastilla varustettuja vihreitä pisteitä, niin voit zoomata sisään; viivalla varustettua vihreää pistettä, niin voit zoomata ulos tai vihreitä nuolia, niin pääset viereisille kartoille.


METAR-TAF: